createdAt,value
2018-05-23T00:02:08.483Z,80.30
2018-05-23T00:04:35.671Z,80.40
2018-05-23T00:07:02.202Z,80.30
2018-05-23T00:09:29.403Z,81.00
2018-05-23T00:11:55.849Z,80.90
2018-05-23T00:14:22.459Z,81.00
2018-05-23T00:16:48.840Z,81.40
2018-05-23T00:19:15.316Z,82.00
2018-05-23T00:21:42.492Z,83.20
2018-05-23T00:24:08.882Z,83.00
2018-05-23T00:26:35.293Z,83.30
2018-05-23T00:29:02.548Z,83.70
2018-05-23T00:31:28.968Z,83.70
2018-05-23T00:33:55.677Z,84.10
2018-05-23T00:36:22.805Z,84.50
2018-05-23T00:38:49.208Z,84.50
2018-05-23T00:41:15.625Z,84.70
2018-05-23T00:43:42.080Z,84.80
2018-05-23T00:46:08.526Z,85.10
2018-05-23T00:48:35.044Z,85.30
2018-05-23T00:51:01.601Z,85.50
2018-05-23T00:53:28.057Z,85.60
2018-05-23T00:55:55.240Z,86.50
2018-05-23T00:58:21.670Z,86.40
2018-05-23T01:00:48.889Z,87.00
2018-05-23T01:03:15.353Z,87.70
2018-05-23T01:05:41.797Z,87.50
2018-05-23T01:08:08.224Z,87.80
2018-05-23T01:10:35.520Z,88.30
2018-05-23T01:13:01.967Z,88.30
2018-05-23T01:15:28.402Z,88.40
2018-05-23T01:17:55.689Z,89.00
2018-05-23T01:20:22.963Z,89.00
2018-05-23T01:22:50.141Z,89.40
2018-05-23T01:25:16.695Z,89.40
2018-05-23T01:27:43.830Z,90.40
2018-05-23T01:30:10.282Z,90.00
2018-05-23T01:32:36.691Z,90.00
2018-05-23T01:35:03.110Z,90.00
2018-05-23T01:37:29.519Z,90.00
2018-05-23T01:39:55.932Z,90.00
2018-05-23T01:42:23.628Z,90.10
2018-05-23T01:44:50.799Z,90.30
2018-05-23T01:47:17.993Z,90.30
2018-05-23T01:49:44.416Z,90.30
2018-05-23T01:52:11.590Z,90.50
2018-05-23T01:54:39.437Z,90.60
2018-05-23T01:57:05.863Z,90.60
2018-05-23T01:59:32.283Z,90.60
2018-05-23T02:01:58.672Z,90.80
2018-05-23T02:04:25.126Z,90.80
2018-05-23T02:06:51.563Z,90.70
2018-05-23T02:09:18.772Z,90.90
2018-05-23T02:11:45.300Z,90.90
2018-05-23T02:14:11.752Z,90.90
2018-05-23T02:16:38.925Z,91.40
2018-05-23T02:19:06.076Z,91.20
2018-05-23T02:21:32.539Z,91.20
2018-05-23T02:23:59.709Z,91.70
2018-05-23T02:26:26.874Z,91.20
2018-05-23T02:28:53.283Z,91.20
2018-05-23T02:31:19.712Z,91.30
2018-05-23T02:33:46.863Z,91.30
2018-05-23T02:36:13.341Z,91.30
2018-05-23T02:38:39.752Z,91.30
2018-05-23T02:41:06.212Z,91.40
2018-05-23T02:43:32.654Z,91.50
2018-05-23T02:45:59.709Z,91.70
2018-05-23T02:48:26.235Z,91.80
2018-05-23T02:50:53.414Z,92.10
2018-05-23T02:53:19.865Z,92.10
2018-05-23T02:55:46.296Z,92.20
2018-05-23T02:58:12.692Z,92.30
2018-05-23T03:00:39.168Z,92.40
2018-05-23T03:03:05.642Z,92.60
2018-05-23T03:05:32.078Z,92.70
2018-05-23T03:07:58.537Z,92.90
2018-05-23T03:10:24.961Z,93.00
2018-05-23T03:12:51.444Z,93.20
2018-05-23T03:15:17.846Z,93.40
2018-05-23T03:17:44.258Z,93.60
2018-05-23T03:20:10.682Z,93.70
2018-05-23T03:22:37.147Z,93.50
2018-05-23T03:25:03.695Z,93.50
2018-05-23T03:27:30.151Z,93.60
2018-05-23T03:29:57.425Z,93.70
2018-05-23T03:32:24.698Z,93.70
2018-05-23T03:34:51.872Z,93.70
2018-05-23T03:37:19.057Z,93.80
2018-05-23T03:39:45.482Z,93.80
2018-05-23T03:42:12.680Z,93.90
2018-05-23T03:44:39.683Z,93.90
2018-05-23T03:47:06.107Z,93.90
2018-05-23T03:49:32.533Z,93.90
2018-05-23T03:51:58.962Z,94.00
2018-05-23T03:54:25.952Z,94.20
2018-05-23T03:56:52.550Z,93.80
2018-05-23T03:59:19.128Z,93.80
2018-05-23T04:01:57.964Z,93.80
2018-05-23T04:04:36.772Z,94.00
2018-05-23T04:07:28.949Z,94.10
2018-05-23T04:09:56.941Z,94.00
2018-05-23T04:12:24.251Z,94.50
2018-05-23T04:14:51.425Z,94.00
2018-05-23T04:17:18.698Z,93.00
2018-05-23T04:19:45.888Z,91.60
2018-05-23T04:22:12.298Z,91.50
2018-05-23T04:24:38.761Z,90.10
2018-05-23T04:27:05.934Z,85.50
2018-05-23T04:29:32.335Z,84.60
2018-05-23T04:31:58.753Z,82.40
2018-05-23T04:34:25.893Z,80.00
2018-05-23T04:36:52.312Z,79.50
2018-05-23T04:39:19.330Z,76.80
2018-05-23T04:41:45.772Z,74.10
2018-05-23T04:44:12.279Z,72.10
2018-05-23T04:46:38.847Z,70.00
2018-05-23T04:49:06.521Z,67.60
2018-05-23T04:51:33.793Z,64.40
2018-05-23T04:54:01.006Z,62.00
2018-05-23T04:56:28.013Z,61.90
2018-05-23T04:58:55.189Z,57.40
2018-05-23T05:01:22.484Z,56.60
2018-05-23T05:03:49.680Z,56.00
2018-05-23T05:06:16.136Z,56.00
2018-05-23T05:08:42.594Z,55.30
2018-05-23T05:11:09.089Z,54.20
2018-05-23T05:13:35.583Z,53.90
2018-05-23T05:16:02.960Z,52.70
2018-05-23T05:18:30.134Z,51.10
2018-05-23T05:20:57.300Z,49.60
2018-05-23T05:23:24.510Z,48.40
2018-05-23T05:25:51.036Z,48.30
2018-05-23T05:28:18.205Z,46.00
2018-05-23T05:30:45.369Z,44.40
2018-05-23T05:33:12.550Z,43.50
2018-05-23T05:35:39.752Z,42.10
2018-05-23T05:38:06.183Z,42.10
2018-05-23T05:40:34.336Z,41.00
2018-05-23T05:43:00.888Z,40.40
2018-05-23T05:45:27.496Z,39.60
2018-05-23T05:47:53.984Z,39.80
2018-05-23T05:50:20.431Z,39.40
2018-05-23T05:52:46.889Z,38.90
2018-05-23T05:55:13.324Z,38.10
2018-05-23T05:57:39.910Z,37.10
2018-05-23T06:00:06.459Z,36.20
2018-05-23T06:02:32.995Z,35.70
2018-05-23T06:05:00.259Z,35.10
2018-05-23T06:07:27.448Z,34.10
2018-05-23T06:09:53.943Z,34.10
2018-05-23T06:12:20.459Z,34.10
2018-05-23T06:14:46.993Z,33.80
2018-05-23T06:17:14.167Z,32.80
2018-05-23T06:19:40.597Z,32.90
2018-05-23T06:22:07.053Z,33.20
2018-05-23T06:24:33.521Z,33.20
2018-05-23T06:27:00.014Z,32.60
2018-05-23T06:29:26.570Z,33.10
2018-05-23T06:31:52.978Z,34.00
2018-05-23T06:34:19.387Z,34.80
2018-05-23T06:36:45.847Z,34.80
2018-05-23T06:39:12.370Z,34.60
2018-05-23T06:41:38.810Z,35.30
2018-05-23T06:44:05.242Z,37.00
2018-05-23T06:46:31.724Z,38.10
2018-05-23T06:48:58.131Z,37.90
2018-05-23T06:51:24.591Z,39.10
2018-05-23T06:53:51.141Z,40.10
2018-05-23T06:56:17.625Z,40.50
2018-05-23T06:58:44.829Z,41.80
2018-05-23T07:01:11.285Z,42.30
2018-05-23T07:03:37.721Z,42.00
2018-05-23T07:06:04.262Z,41.50
2018-05-23T07:08:30.668Z,41.80
2018-05-23T07:10:57.106Z,41.60
2018-05-23T07:13:23.559Z,41.30
2018-05-23T07:15:49.952Z,41.90
2018-05-23T07:18:17.126Z,42.80
2018-05-23T07:20:44.826Z,42.70
2018-05-23T07:23:11.376Z,42.70
2018-05-23T07:25:38.584Z,42.30
2018-05-23T07:28:05.100Z,42.30
2018-05-23T07:30:32.275Z,40.40
2018-05-23T07:32:58.746Z,40.40
2018-05-23T07:35:25.772Z,40.20
2018-05-23T07:37:52.237Z,40.60
2018-05-23T07:40:19.433Z,42.60
2018-05-23T07:42:46.668Z,44.00
2018-05-23T07:45:13.169Z,44.10
2018-05-23T07:47:40.416Z,45.70
2018-05-23T07:50:06.998Z,45.70
2018-05-23T07:52:34.010Z,46.10
2018-05-23T07:55:00.465Z,46.10
2018-05-23T07:57:27.576Z,45.80
2018-05-23T07:59:54.746Z,45.40
2018-05-23T08:02:21.931Z,45.70
2018-05-23T08:04:49.213Z,47.70
2018-05-23T08:07:15.676Z,46.80
2018-05-23T08:09:42.236Z,46.50
2018-05-23T08:12:08.788Z,47.40
2018-05-23T08:14:35.245Z,47.50
2018-05-23T08:17:02.519Z,48.30
2018-05-23T08:19:29.078Z,48.20
2018-05-23T08:21:56.288Z,49.90
2018-05-23T08:24:22.827Z,49.90
2018-05-23T08:26:49.313Z,50.90
2018-05-23T08:29:15.734Z,52.00
2018-05-23T08:31:42.170Z,51.70
2018-05-23T08:34:09.351Z,52.20
2018-05-23T08:36:36.465Z,52.20
2018-05-23T08:39:03.020Z,52.50
2018-05-23T08:41:29.479Z,52.90
2018-05-23T08:43:55.883Z,52.30
2018-05-23T08:46:23.053Z,52.50
2018-05-23T08:48:50.199Z,53.00
2018-05-23T08:51:16.634Z,53.00
2018-05-23T08:53:43.104Z,52.80
2018-05-23T08:56:09.694Z,52.40
2018-05-23T08:58:36.834Z,52.90
2018-05-23T09:01:03.337Z,52.90
2018-05-23T09:03:29.727Z,52.30
2018-05-23T09:05:56.170Z,51.40
2018-05-23T09:08:22.601Z,51.80
2018-05-23T09:10:49.095Z,51.70
2018-05-23T09:13:15.547Z,51.40
2018-05-23T09:15:42.176Z,51.90
2018-05-23T09:18:08.651Z,52.80
2018-05-23T09:20:35.202Z,53.10
2018-05-23T09:23:01.763Z,53.40
2018-05-23T09:25:28.200Z,52.30
2018-05-23T09:27:54.681Z,52.50
2018-05-23T09:30:21.222Z,52.80
2018-05-23T09:32:48.403Z,54.60
2018-05-23T09:35:14.861Z,54.60
2018-05-23T09:37:41.303Z,54.70
2018-05-23T09:40:08.478Z,58.10
2018-05-23T09:42:35.421Z,58.10
2018-05-23T09:45:01.885Z,59.90
2018-05-23T09:47:28.286Z,62.00
2018-05-23T09:49:54.721Z,64.10
2018-05-23T09:52:21.161Z,64.60
2018-05-23T09:54:48.341Z,60.40
2018-05-23T09:57:15.486Z,60.10
2018-05-23T09:59:41.950Z,60.00
2018-05-23T10:02:08.531Z,60.50
2018-05-23T10:04:36.444Z,59.40
2018-05-23T10:07:02.892Z,59.40
2018-05-23T10:09:29.329Z,62.10
2018-05-23T10:11:56.487Z,67.40
2018-05-23T10:14:23.656Z,67.40
2018-05-23T10:16:50.087Z,67.40
2018-05-23T10:19:16.505Z,67.80
2018-05-23T10:21:43.559Z,68.30
2018-05-23T10:24:10.216Z,71.60
2018-05-23T10:26:37.435Z,77.00
2018-05-23T10:29:03.993Z,77.00
2018-05-23T10:31:30.507Z,77.20
2018-05-23T10:33:57.707Z,77.50
2018-05-23T10:36:24.775Z,77.50
2018-05-23T10:38:51.273Z,79.90
2018-05-23T10:41:17.836Z,79.30
2018-05-23T10:43:44.299Z,79.20
2018-05-23T10:46:10.925Z,79.70
2018-05-23T10:48:38.059Z,80.70
2018-05-23T10:51:04.587Z,80.60
2018-05-23T10:53:31.001Z,80.10
2018-05-23T10:55:57.448Z,79.90
2018-05-23T10:58:23.987Z,82.90
2018-05-23T11:00:50.440Z,84.20
2018-05-23T11:03:17.712Z,89.10
2018-05-23T11:05:44.958Z,90.60
2018-05-23T11:08:11.443Z,90.70
2018-05-23T11:10:38.519Z,91.60
2018-05-23T11:13:05.070Z,92.30
2018-05-23T11:15:32.099Z,93.60
2018-05-23T11:17:58.611Z,94.50
2018-05-23T11:20:25.075Z,95.20
2018-05-23T11:22:51.614Z,95.60
2018-05-23T11:25:18.376Z,95.70
2018-05-23T11:27:45.558Z,96.10
2018-05-23T11:30:12.822Z,95.30
2018-05-23T11:32:39.380Z,95.30
2018-05-23T11:35:06.657Z,94.80
2018-05-23T11:37:33.853Z,95.00
2018-05-23T11:40:00.387Z,95.00
2018-05-23T11:42:27.616Z,95.50
2018-05-23T11:44:54.082Z,95.40
2018-05-23T11:47:20.482Z,95.70
2018-05-23T11:49:46.946Z,96.00
2018-05-23T11:52:13.451Z,97.60
2018-05-23T11:54:39.915Z,99.50
2018-05-23T11:57:07.019Z,99.90
2018-05-23T11:59:33.573Z,99.90
2018-05-23T12:02:00.017Z,99.90
2018-05-23T12:04:27.208Z,99.90
2018-05-23T12:06:53.768Z,99.90
2018-05-23T12:09:20.230Z,99.90
2018-05-23T12:11:46.652Z,99.90
2018-05-23T12:14:13.104Z,99.90
2018-05-23T12:16:39.572Z,99.90
2018-05-23T12:19:06.735Z,99.90
2018-05-23T12:21:33.940Z,99.90
2018-05-23T12:24:01.253Z,99.90
2018-05-23T12:26:27.763Z,99.90
2018-05-23T12:28:54.954Z,99.90
2018-05-23T12:31:21.494Z,99.90
2018-05-23T12:33:48.699Z,99.90
2018-05-23T12:36:15.132Z,99.90
2018-05-23T12:38:41.628Z,99.90
2018-05-23T12:41:08.116Z,99.90
2018-05-23T12:43:35.181Z,99.90
2018-05-23T12:46:01.769Z,99.90
2018-05-23T12:48:28.176Z,99.90
2018-05-23T12:50:55.102Z,99.90
2018-05-23T12:53:21.558Z,99.90
2018-05-23T12:55:48.104Z,99.90
2018-05-23T12:58:15.927Z,99.90
2018-05-23T13:00:42.447Z,99.90
2018-05-23T13:03:09.631Z,99.90
2018-05-23T13:05:36.083Z,99.90
2018-05-23T13:08:03.093Z,99.90
2018-05-23T13:10:29.548Z,99.90
2018-05-23T13:12:56.044Z,99.90
2018-05-23T13:15:23.227Z,99.90
2018-05-23T13:17:50.459Z,99.90
2018-05-23T13:20:17.379Z,99.90
2018-05-23T13:22:43.849Z,99.90
2018-05-23T13:25:10.810Z,99.90
2018-05-23T13:27:37.232Z,99.90
2018-05-23T13:30:03.917Z,99.90
2018-05-23T13:32:31.118Z,99.90
2018-05-23T13:34:57.761Z,99.90
2018-05-23T13:37:24.717Z,99.90
2018-05-23T13:39:51.990Z,99.90
2018-05-23T13:42:18.553Z,99.90
2018-05-23T13:44:45.083Z,99.90
2018-05-23T13:47:12.586Z,99.90
2018-05-23T13:49:39.451Z,99.90
2018-05-23T13:52:06.013Z,99.90
2018-05-23T13:54:32.672Z,99.90
2018-05-23T13:56:59.180Z,99.90
2018-05-23T13:59:25.894Z,99.90
2018-05-23T14:01:52.625Z,99.90
2018-05-23T14:04:19.091Z,99.90
2018-05-23T14:06:47.179Z,99.90
2018-05-23T14:09:14.185Z,99.90
2018-05-23T14:11:41.041Z,99.90
2018-05-23T14:14:07.698Z,99.90
2018-05-23T14:16:34.256Z,99.90
2018-05-23T14:19:01.553Z,99.90
2018-05-23T14:21:27.966Z,99.90
2018-05-23T14:23:54.443Z,99.90
2018-05-23T14:26:23.457Z,99.90
2018-05-23T14:28:51.022Z,99.90
2018-05-23T14:31:18.230Z,99.90
2018-05-23T14:33:44.934Z,99.90
2018-05-23T14:36:11.538Z,99.90
2018-05-23T14:38:38.094Z,99.90
2018-05-23T14:41:04.512Z,99.90
2018-05-23T14:43:31.054Z,99.90
2018-05-23T14:45:57.563Z,99.90
2018-05-23T14:48:24.941Z,99.90
2018-05-23T14:50:51.968Z,99.90
2018-05-23T14:53:18.466Z,99.90
2018-05-23T14:55:45.026Z,99.90
2018-05-23T14:58:11.496Z,99.90
2018-05-23T15:00:38.007Z,99.90
2018-05-23T15:03:04.537Z,99.90
2018-05-23T15:05:30.993Z,99.90
2018-05-23T15:07:57.455Z,99.90
2018-05-23T15:10:23.923Z,99.90
2018-05-23T15:12:50.525Z,99.90
2018-05-23T15:15:18.718Z,99.90
2018-05-23T15:17:45.686Z,99.90
2018-05-23T15:20:13.005Z,99.90
2018-05-23T15:22:39.466Z,99.90
2018-05-23T15:25:05.921Z,99.90
2018-05-23T15:27:33.464Z,99.90
2018-05-23T15:29:59.893Z,99.90
2018-05-23T15:32:26.591Z,99.90
2018-05-23T15:34:53.133Z,99.90
2018-05-23T15:37:20.307Z,99.90
2018-05-23T15:39:46.782Z,99.90
2018-05-23T15:42:13.261Z,99.90
2018-05-23T15:44:39.676Z,99.90
2018-05-23T15:47:07.050Z,99.90
2018-05-23T15:49:34.268Z,99.90
2018-05-23T15:52:00.781Z,99.90
2018-05-23T15:54:28.595Z,99.90
2018-05-23T15:56:55.155Z,99.90
2018-05-23T15:59:21.587Z,99.90
2018-05-23T16:01:48.857Z,99.90
2018-05-23T16:04:15.348Z,99.90
2018-05-23T16:06:41.875Z,99.90
2018-05-23T16:09:08.437Z,99.90
2018-05-23T16:11:36.016Z,99.90
2018-05-23T16:14:02.525Z,99.90
2018-05-23T16:16:29.034Z,99.90
2018-05-23T16:18:55.549Z,99.90
2018-05-23T16:21:22.011Z,99.90
2018-05-23T16:23:48.499Z,99.90
2018-05-23T16:26:15.697Z,99.90
2018-05-23T16:28:42.129Z,99.90
2018-05-23T16:31:08.550Z,99.90
2018-05-23T16:33:34.977Z,99.90
2018-05-23T16:36:01.497Z,99.90
2018-05-23T16:38:28.735Z,99.90
2018-05-23T16:40:56.732Z,99.90
2018-05-23T16:43:23.922Z,99.90
2018-05-23T16:45:51.082Z,99.90
2018-05-23T16:48:18.280Z,99.90
2018-05-23T16:50:45.435Z,99.90
2018-05-23T16:53:13.013Z,99.90
2018-05-23T16:55:40.253Z,99.90
2018-05-23T16:58:06.724Z,99.90
2018-05-23T17:00:33.158Z,99.90
2018-05-23T17:02:59.798Z,99.90
2018-05-23T17:05:26.443Z,99.90
2018-05-23T17:07:53.574Z,99.90
2018-05-23T17:10:20.108Z,99.90
2018-05-23T17:12:46.728Z,99.90
2018-05-23T17:15:13.283Z,99.90
2018-05-23T17:17:40.485Z,99.90
2018-05-23T17:20:07.127Z,99.90
2018-05-23T17:22:33.781Z,99.90
2018-05-23T17:25:00.239Z,99.90
2018-05-23T17:27:27.427Z,99.90
2018-05-23T17:29:53.971Z,99.90
2018-05-23T17:32:21.244Z,99.90
2018-05-23T17:34:48.502Z,99.90
2018-05-23T17:37:16.308Z,99.90
2018-05-23T17:39:42.786Z,99.90
2018-05-23T17:42:09.246Z,99.90
2018-05-23T17:44:35.759Z,99.90
2018-05-23T17:47:03.091Z,99.90
2018-05-23T17:49:29.606Z,99.90
2018-05-23T17:51:57.090Z,99.90
2018-05-23T17:54:23.580Z,99.90
2018-05-23T17:56:50.771Z,99.90
2018-05-23T17:59:17.223Z,99.90
2018-05-23T18:01:43.699Z,99.90
2018-05-23T18:04:10.191Z,99.90
2018-05-23T18:06:37.434Z,99.90
2018-05-23T18:09:04.942Z,99.90
2018-05-23T18:11:32.127Z,99.90
2018-05-23T18:13:58.618Z,99.90
2018-05-23T18:16:25.128Z,99.90
2018-05-23T18:18:52.914Z,99.90
2018-05-23T18:21:20.356Z,99.90
2018-05-23T18:23:47.345Z,99.90
2018-05-23T18:26:13.730Z,99.90
2018-05-23T18:28:40.275Z,99.90
2018-05-23T18:31:07.884Z,99.90
2018-05-23T18:33:34.295Z,99.90
2018-05-23T18:36:00.870Z,99.90
2018-05-23T18:38:28.146Z,99.90
2018-05-23T18:40:55.322Z,99.90
2018-05-23T18:43:22.424Z,99.90
2018-05-23T18:45:48.845Z,99.90
2018-05-23T18:48:16.011Z,99.90
2018-05-23T18:50:43.797Z,99.90
2018-05-23T18:53:10.281Z,99.90
2018-05-23T18:55:36.730Z,99.90
2018-05-23T18:58:03.273Z,99.90
2018-05-23T19:00:30.550Z,99.90
2018-05-23T19:02:57.553Z,99.90
2018-05-23T19:05:24.104Z,99.90
2018-05-23T19:07:50.739Z,99.90
2018-05-23T19:10:17.201Z,99.90
2018-05-23T19:12:43.854Z,99.90
2018-05-23T19:15:10.370Z,99.90
2018-05-23T19:17:36.823Z,99.90
2018-05-23T19:20:04.075Z,99.90
2018-05-23T19:22:30.549Z,99.90
2018-05-23T19:24:57.004Z,99.90
2018-05-23T19:27:23.451Z,99.90
2018-05-23T19:29:49.895Z,99.90
2018-05-23T19:32:16.311Z,99.90
2018-05-23T19:34:42.812Z,99.90
2018-05-23T19:37:09.308Z,99.90
2018-05-23T19:39:35.970Z,99.90
2018-05-23T19:42:02.559Z,99.90
2018-05-23T19:44:29.750Z,99.90
2018-05-23T19:46:56.213Z,99.90
2018-05-23T19:49:22.705Z,99.90
2018-05-23T19:51:49.718Z,99.90
2018-05-23T19:54:16.178Z,99.90
2018-05-23T19:56:42.651Z,99.90
2018-05-23T19:59:09.737Z,99.90
2018-05-23T20:01:36.327Z,99.90
2018-05-23T20:04:03.632Z,99.90
2018-05-23T20:06:31.111Z,99.90
2018-05-23T20:08:58.277Z,99.90
2018-05-23T20:11:25.968Z,99.90
2018-05-23T20:13:53.276Z,99.90
2018-05-23T20:16:19.777Z,99.90
2018-05-23T20:18:47.916Z,99.90
2018-05-23T20:21:14.555Z,99.90
2018-05-23T20:23:41.143Z,99.90
2018-05-23T20:26:07.625Z,99.90
2018-05-23T20:28:34.169Z,99.90
2018-05-23T20:31:00.666Z,99.90
2018-05-23T20:33:28.066Z,99.90
2018-05-23T20:35:54.623Z,99.90
2018-05-23T20:38:21.886Z,99.90
2018-05-23T20:40:49.179Z,99.90
2018-05-23T20:43:15.600Z,99.90
2018-05-23T20:45:43.005Z,99.90
2018-05-23T20:48:10.584Z,99.90
2018-05-23T20:50:37.145Z,99.90
2018-05-23T20:53:03.610Z,99.90
2018-05-23T20:55:30.156Z,99.90
2018-05-23T20:57:57.441Z,99.90
2018-05-23T21:00:23.992Z,99.90
2018-05-23T21:02:50.968Z,99.90
2018-05-23T21:05:17.580Z,99.90
2018-05-23T21:07:44.080Z,99.90
2018-05-23T21:10:10.575Z,99.90
2018-05-23T21:12:37.019Z,99.90
2018-05-23T21:15:03.651Z,99.90
2018-05-23T21:17:30.876Z,99.90
2018-05-23T21:19:57.384Z,99.90
2018-05-23T21:22:23.950Z,99.90
2018-05-23T21:24:50.358Z,99.90
2018-05-23T21:27:16.863Z,99.90
2018-05-23T21:29:43.305Z,99.90
2018-05-23T21:32:10.561Z,99.90
2018-05-23T21:34:37.002Z,99.90
2018-05-23T21:37:03.499Z,99.90
2018-05-23T21:39:30.772Z,99.90
2018-05-23T21:41:57.928Z,99.90
2018-05-23T21:44:25.808Z,99.90
2018-05-23T21:46:52.348Z,99.90
2018-05-23T21:49:18.777Z,99.90
2018-05-23T21:51:45.213Z,99.90
2018-05-23T21:54:11.648Z,99.90
2018-05-23T21:56:38.845Z,99.90
2018-05-23T21:59:05.282Z,99.90
2018-05-23T22:01:32.221Z,99.90
2018-05-23T22:03:58.674Z,99.90
2018-05-23T22:06:25.124Z,99.90
2018-05-23T22:08:51.622Z,99.90
2018-05-23T22:11:18.775Z,99.90
2018-05-23T22:13:46.071Z,99.90
2018-05-23T22:16:13.344Z,99.90
2018-05-23T22:18:40.505Z,99.90
2018-05-23T22:21:07.791Z,99.90
2018-05-23T22:23:34.949Z,99.90
2018-05-23T22:26:02.239Z,99.90
2018-05-23T22:28:28.686Z,99.90
2018-05-23T22:30:55.863Z,99.90
2018-05-23T22:33:23.144Z,99.90
2018-05-23T22:35:49.611Z,99.90
2018-05-23T22:38:16.089Z,99.90
2018-05-23T22:40:42.500Z,99.90
2018-05-23T22:43:08.943Z,99.90
2018-05-23T22:45:35.422Z,99.90
2018-05-23T22:48:01.858Z,99.90
2018-05-23T22:50:28.276Z,99.90
2018-05-23T22:52:54.752Z,99.90
2018-05-23T22:55:21.183Z,99.90
2018-05-23T22:57:47.599Z,99.90
2018-05-23T23:00:15.877Z,99.90
2018-05-23T23:02:42.288Z,99.90
2018-05-23T23:05:08.728Z,99.90
2018-05-23T23:07:35.199Z,99.90
2018-05-23T23:10:01.907Z,99.90
2018-05-23T23:12:29.078Z,99.90
2018-05-23T23:14:56.232Z,99.90
2018-05-23T23:17:22.679Z,99.90
2018-05-23T23:19:49.187Z,99.90
2018-05-23T23:22:28.530Z,99.90
2018-05-23T23:24:55.728Z,99.90
2018-05-23T23:27:22.154Z,99.90
2018-05-23T23:29:49.316Z,99.90
2018-05-23T23:32:16.480Z,99.90
2018-05-23T23:34:43.643Z,99.90
2018-05-23T23:37:10.064Z,99.90
2018-05-23T23:39:36.467Z,99.90
2018-05-23T23:42:02.918Z,99.90
2018-05-23T23:44:30.132Z,99.90
2018-05-23T23:46:56.556Z,99.90
2018-05-23T23:49:23.676Z,99.90
2018-05-23T23:51:50.100Z,99.90
2018-05-23T23:54:17.306Z,99.90
2018-05-23T23:56:43.755Z,99.90
2018-05-23T23:59:10.203Z,99.90
